Terminal Aerodrome Forecast
Issued by NWS Caribou, ME

Home | Current Version | Previous Version | Text Only | Print | Product List | Glossary On
Versions: 1 2 3 4 5 6 7 8 9 10 11 12 13 14 15 16 17 18 19 20
000
FTUS41 KCAR 170520
TAFBGR
TAF
KBGR 170520Z 1706/1806 33004KT P6SM BKN050
     FM170800 32004KT P6SM FEW250
     FM172100 23005KT P6SM FEW110
     FM180400 22006KT P6SM BKN070=

USA.gov is the U.S. government's official web portal to all federal, state and local government web resources and services.